Time;durP1;ratioP1;P1;durP2;ratioP2;P2;SDS_P1;SDS_P2;PMS_P1;PMS_P2;Temp;Humidity;BMP_temperature;BMP_pressure;BME280_temperature;BME280_humidity;BME280_pressure;Samples;Min_cycle;Max_cycle;Signal;HPM_P1;HPM_P2
2021/04/06 00:00:10;;;;;;;5.30;1.52;;;;;;;-139.48;100.00;61774.03;5091780;28;20054;-69
2021/04/06 00:02:57;;;;;;;1.98;1.38;;;;;;;-139.48;100.00;61774.03;5077528;28;20130;-70
2021/04/06 00:05:41;;;;;;;4.53;1.55;;;;;;;-139.48;100.00;61774.03;5091745;28;20051;-70
2021/04/06 00:08:27;;;;;;;4.68;1.90;;;;;;;-139.48;100.00;61774.03;5091865;28;20051;-70
2021/04/06 00:11:12;;;;;;;1.95;1.30;;;;;;;-139.48;100.00;61774.03;5093673;28;20055;-70
2021/04/06 00:13:56;;;;;;;6.05;1.30;;;;;;;-139.48;100.00;61774.03;5095579;28;20043;-70
2021/04/06 00:16:42;;;;;;;6.60;1.50;;;;;;;-139.48;100.00;61774.03;5095415;28;20047;-70
2021/04/06 00:19:28;;;;;;;4.47;1.33;;;;;;;-139.48;100.00;61774.03;5081399;28;20093;-69
2021/04/06 00:22:15;;;;;;;5.68;1.10;;;;;;;-139.48;100.00;61774.03;5095429;28;20050;-69
2021/04/06 00:25:00;;;;;;;4.65;1.67;;;;;;;-139.48;100.00;61774.03;5095290;28;20067;-69
2021/04/06 00:27:45;;;;;;;2.88;1.52;;;;;;;-139.48;100.00;61774.03;5095129;28;20051;-69
2021/04/06 00:30:31;;;;;;;4.38;1.60;;;;;;;-139.48;100.00;61774.03;5080944;28;20519;-70
2021/04/06 00:33:21;;;;;;;4.35;1.52;;;;;;;-139.48;100.00;61774.03;5095129;28;20093;-70
2021/04/06 00:36:06;;;;;;;6.68;1.80;;;;;;;-139.48;100.00;61774.03;5080952;28;20066;-70
2021/04/06 00:38:50;;;;;;;3.83;1.50;;;;;;;-139.48;100.00;61774.03;5080840;28;20055;-69
2021/04/06 00:41:36;;;;;;;4.10;1.45;;;;;;;-139.48;100.00;61774.03;5095786;28;20105;-69
2021/04/06 00:44:21;;;;;;;6.60;1.85;;;;;;;-139.48;100.00;61774.03;5080668;28;20408;-69
2021/04/06 00:47:05;;;;;;;3.28;1.35;;;;;;;-139.48;100.00;61774.03;5094919;28;20046;-72
2021/04/06 00:49:49;;;;;;;1.92;1.15;;;;;;;-139.48;100.00;61774.03;5094842;28;20051;-69
2021/04/06 00:52:33;;;;;;;5.25;1.60;;;;;;;-139.48;100.00;61774.03;5094964;28;20050;-69
2021/04/06 00:55:18;;;;;;;;;;;;;;;-139.48;100.00;61774.03;5095380;28;20135;-69
2021/04/06 00:58:08;;;;;;;3.28;1.20;;;;;;;-139.48;100.00;61774.03;5096105;28;20334;-69
2021/04/06 01:01:02;;;;;;;6.38;1.45;;;;;;;-139.48;100.00;61774.03;5080680;28;20038;-71
2021/04/06 01:03:46;;;;;;;2.42;1.27;;;;;;;-139.48;100.00;61774.03;5094980;28;20094;-71
2021/04/06 01:06:32;;;;;;;4.32;1.23;;;;;;;-139.48;100.00;61774.03;5080742;28;20105;-71
2021/04/06 01:09:16;;;;;;;3.35;1.80;;;;;;;-139.48;100.00;61774.03;5094873;28;20466;-71
2021/04/06 01:12:02;;;;;;;3.05;1.40;;;;;;;-139.48;100.00;61774.03;5080378;28;20050;-71
2021/04/06 01:14:48;;;;;;;6.43;1.13;;;;;;;-139.48;100.00;61774.03;5095782;28;20075;-71
2021/04/06 01:17:34;;;;;;;3.85;1.55;;;;;;;-139.48;100.00;61774.03;5096341;28;20104;-71
2021/04/06 01:20:19;;;;;;;5.28;1.42;;;;;;;-139.48;100.00;61774.03;5095437;28;20439;-71
2021/04/06 01:23:18;;;;;;;3.95;1.23;;;;;;;-139.48;100.00;61774.03;5081135;28;20504;-71
2021/04/06 01:26:03;;;;;;;2.72;1.20;;;;;;;-139.48;100.00;61774.03;5096050;28;20105;-71
2021/04/06 01:28:49;;;;;;;7.13;1.33;;;;;;;-139.48;100.00;61774.03;5080517;28;20136;-71
2021/04/06 01:31:34;;;;;;;3.00;1.25;;;;;;;-139.48;100.00;61774.03;5096446;28;20189;-71
2021/04/06 01:34:18;;;;;;;5.20;1.50;;;;;;;-139.48;100.00;61774.03;5096161;28;20051;-71
2021/04/06 01:37:02;;;;;;;2.78;1.50;;;;;;;-139.48;100.00;61774.03;5096570;28;20102;-71
2021/04/06 01:39:50;;;;;;;4.82;2.00;;;;;;;-139.48;100.00;61774.03;5096778;28;20047;-71
2021/04/06 01:42:36;;;;;;;3.55;1.45;;;;;;;-139.48;100.00;61774.03;5097943;28;20047;-71
2021/04/06 01:45:21;;;;;;;1.67;1.02;;;;;;;-139.48;100.00;61774.03;5097099;28;20417;-71
2021/04/06 01:48:06;;;;;;;4.30;1.60;;;;;;;-139.48;100.00;61774.03;5095872;28;20529;-71
2021/04/06 01:50:52;;;;;;;6.53;2.60;;;;;;;-139.48;100.00;61774.03;5096770;28;20051;-71
2021/04/06 01:53:36;;;;;;;2.78;1.80;;;;;;;-139.48;100.00;61774.03;5095608;28;20047;-71
2021/04/06 01:56:30;;;;;;;6.88;1.95;;;;;;;-139.48;100.00;61774.03;5095243;28;20114;-71
2021/04/06 01:59:19;;;;;;;5.80;2.17;;;;;;;-139.48;100.00;61774.03;5095395;28;20051;-71
2021/04/06 02:02:04;;;;;;;7.50;1.88;;;;;;;-139.48;100.00;61774.03;5095446;28;20046;-71
2021/04/06 02:04:54;;;;;;;6.53;2.35;;;;;;;-139.48;100.00;61774.03;5095923;28;20043;-70
2021/04/06 02:07:40;;;;;;;7.35;2.42;;;;;;;-139.48;100.00;61774.03;5094495;28;20094;-71
2021/04/06 02:10:25;;;;;;;4.80;2.22;;;;;;;-139.48;100.00;61774.03;5095823;28;20066;-71
2021/04/06 02:13:14;;;;;;;6.30;1.88;;;;;;;-139.48;100.00;61774.03;5081262;28;20462;-71
2021/04/06 02:16:03;;;;;;;6.63;2.20;;;;;;;-139.48;100.00;61774.03;5096313;28;20105;-71
2021/04/06 02:18:51;;;;;;;2.38;1.60;;;;;;;-139.48;100.00;61774.03;5093838;28;20101;-71
2021/04/06 02:21:51;;;;;;;8.40;2.25;;;;;;;-139.48;100.00;61774.03;5094700;28;20051;-71
2021/04/06 02:24:41;;;;;;;5.70;1.80;;;;;;;-139.48;100.00;61774.03;5093920;28;20038;-71
2021/04/06 02:27:25;;;;;;;2.63;1.50;;;;;;;-139.48;100.00;61774.03;5078925;28;20148;-71
2021/04/06 02:30:11;;;;;;;;;;;;;;;-139.48;100.00;61774.03;5096773;28;20055;-70
2021/04/06 02:32:55;;;;;;;7.03;2.08;;;;;;;-139.48;100.00;61774.03;5093584;28;19955;-70
2021/04/06 02:35:39;;;;;;;3.80;2.10;;;;;;;-139.48;100.00;61774.03;5094999;28;20047;-71
2021/04/06 02:38:23;;;;;;;10.95;2.33;;;;;;;-139.48;100.00;61774.03;5094905;28;20124;-71
2021/04/06 02:41:18;;;;;;;4.70;1.90;;;;;;;-139.48;100.00;61774.03;5093292;28;20123;-71
2021/04/06 02:44:02;;;;;;;3.10;1.63;;;;;;;-139.48;100.00;61774.03;5094010;28;20412;-71
2021/04/06 02:46:51;;;;;;;9.48;1.75;;;;;;;-139.48;100.00;61774.03;5096768;28;20158;-70
2021/04/06 02:49:35;;;;;;;5.00;2.30;;;;;;;-139.48;100.00;61774.03;5094628;28;20499;-70
2021/04/06 02:52:19;;;;;;;;;;;;;;;-139.48;100.00;61774.03;5080577;28;20071;-71
2021/04/06 02:55:08;;;;;;;4.53;1.60;;;;;;;-139.48;100.00;61774.03;5078901;28;20375;-71
2021/04/06 02:57:54;;;;;;;5.43;2.13;;;;;;;-139.48;100.00;61774.03;5094731;28;20076;-71
2021/04/06 03:00:38;;;;;;;9.30;2.65;;;;;;;-139.48;100.00;61774.03;5094515;28;20417;-71
2021/04/06 03:03:22;;;;;;;8.57;2.50;;;;;;;-139.48;100.00;61774.03;5092339;28;20416;-71
2021/04/06 03:06:12;;;;;;;5.90;2.20;;;;;;;-139.48;100.00;61774.03;5093541;28;20058;-71
2021/04/06 03:08:58;;;;;;;5.07;1.50;;;;;;;-139.48;100.00;61774.03;5094274;28;20086;-71
2021/04/06 03:11:44;;;;;;;5.60;2.28;;;;;;;-139.48;100.00;61774.03;5093253;28;20104;-71
2021/04/06 03:14:28;;;;;;;9.23;2.20;;;;;;;-139.48;100.00;61774.03;5094910;28;20507;-71
2021/04/06 03:17:12;;;;;;;;;;;;;;;-139.48;100.00;61774.03;5094473;28;20120;-71
2021/04/06 03:19:57;;;;;;;9.05;2.47;;;;;;;-139.48;100.00;61774.03;5094104;28;19935;-71
2021/04/06 03:22:42;;;;;;;3.63;2.25;;;;;;;-139.48;100.00;61774.03;5093036;28;20561;-71
2021/04/06 03:25:26;;;;;;;6.63;2.25;;;;;;;-139.48;100.00;61774.03;5092956;28;20074;-71
2021/04/06 03:28:11;;;;;;;5.97;2.78;;;;;;;-139.48;100.00;61774.03;5094131;28;20445;-71
2021/04/06 03:31:07;;;;;;;6.68;2.10;;;;;;;-139.48;100.00;61774.03;5094970;28;20078;-71
2021/04/06 03:33:50;;;;;;;8.70;2.15;;;;;;;-139.48;100.00;61774.03;5094057;28;20097;-71
2021/04/06 03:36:34;;;;;;;;;;;;;;;-139.48;100.00;61774.03;5079913;28;20101;-71
2021/04/06 03:39:18;;;;;;;6.93;1.70;;;;;;;-139.48;100.00;61774.03;5080275;28;20458;-71
2021/04/06 03:42:03;;;;;;;4.75;1.63;;;;;;;-139.48;100.00;61774.03;5078624;28;20561;-71
2021/04/06 03:44:47;;;;;;;9.32;2.42;;;;;;;-139.48;100.00;61774.03;5093513;28;20039;-71
2021/04/06 03:47:59;;;;;;;7.30;1.90;;;;;;;-139.48;100.00;61774.03;5098082;28;20051;-71
2021/04/06 03:50:43;;;;;;;10.20;2.25;;;;;;;-139.48;100.00;61774.03;5096777;28;20047;-71
2021/04/06 03:53:38;;;;;;;6.80;2.30;;;;;;;-139.48;100.00;61774.03;5082698;28;20499;-71
2021/04/06 03:56:30;;;;;;;6.10;2.47;;;;;;;-139.48;100.00;61774.03;5096782;28;20078;-70
2021/04/06 03:59:14;;;;;;;10.20;2.15;;;;;;;-139.48;100.00;61774.03;5099821;28;20093;-71
2021/04/06 04:01:57;;;;;;;7.20;2.40;;;;;;;-139.48;100.00;61774.03;5097798;28;20097;-71
2021/04/06 04:04:41;;;;;;;5.88;2.15;;;;;;;-139.48;100.00;61774.03;5083046;28;20078;-71
2021/04/06 04:07:25;;;;;;;10.85;3.03;;;;;;;-139.48;100.00;61774.03;5082232;28;20051;-71
2021/04/06 04:10:11;;;;;;;6.25;2.10;;;;;;;-139.48;100.00;61774.03;5096368;28;20409;-70
2021/04/06 04:12:55;;;;;;;7.85;2.13;;;;;;;-139.48;100.00;61774.03;5096050;28;20047;-69
2021/04/06 04:15:39;;;;;;;7.53;1.65;;;;;;;-139.48;100.00;61774.03;5096701;28;20073;-70
2021/04/06 04:18:22;;;;;;;;;;;;;;;-139.48;100.00;61774.03;5082919;28;20055;-69
2021/04/06 04:21:11;;;;;;;9.23;1.80;;;;;;;-139.48;100.00;61774.03;5082073;28;20015;-71
2021/04/06 04:23:56;;;;;;;7.60;2.08;;;;;;;-139.48;100.00;61774.03;5096813;28;20127;-71
2021/04/06 04:26:39;;;;;;;6.25;1.80;;;;;;;-139.48;100.00;61774.03;5097546;28;20448;-70
2021/04/06 04:29:23;;;;;;;12.77;2.50;;;;;;;-139.48;100.00;61774.03;5097216;28;20055;-71
2021/04/06 04:32:13;;;;;;;8.52;2.25;;;;;;;-139.48;100.00;61774.03;5095939;28;20097;-71
2021/04/06 04:34:57;;;;;;;6.10;1.10;;;;;;;-139.48;100.00;61774.03;5097369;28;20043;-70
2021/04/06 04:37:41;;;;;;;6.03;2.65;;;;;;;-139.48;100.00;61774.03;5097328;28;20519;-71
2021/04/06 04:40:25;;;;;;;9.68;2.05;;;;;;;-139.48;100.00;61774.03;5097047;28;20125;-69
2021/04/06 04:43:10;;;;;;;4.05;1.42;;;;;;;-139.48;100.00;61774.03;5096030;28;20039;-68
2021/04/06 04:45:54;;;;;;;7.65;2.30;;;;;;;-139.48;100.00;61774.03;5080990;28;20062;-68
2021/04/06 04:48:38;;;;;;;;;;;;;;;-139.48;100.00;61774.03;5095695;28;20086;-69
2021/04/06 04:51:23;;;;;;;9.48;2.67;;;;;;;-139.48;100.00;61774.03;5095463;28;19984;-68
2021/04/06 04:54:07;;;;;;;6.50;2.33;;;;;;;-139.48;100.00;61774.03;5096281;28;20090;-68
2021/04/06 04:56:51;;;;;;;6.03;1.95;;;;;;;-139.48;100.00;61774.03;5094744;28;20050;-69
2021/04/06 04:59:34;;;;;;;7.50;2.70;;;;;;;-139.48;100.00;61774.03;5081181;28;20054;-68
2021/04/06 05:02:18;;;;;;;9.38;2.05;;;;;;;-139.48;100.00;61774.03;5094801;28;20051;-68
2021/04/06 05:05:04;;;;;;;8.10;2.42;;;;;;;-139.48;100.00;61774.03;5096272;28;20450;-68
2021/04/06 05:07:48;;;;;;;6.35;2.05;;;;;;;-139.48;100.00;61774.03;5095237;28;20050;-71
2021/04/06 05:10:32;;;;;;;7.05;2.08;;;;;;;-139.48;100.00;61774.03;5095535;28;20062;-71
2021/04/06 05:13:16;;;;;;;11.15;3.42;;;;;;;-139.48;100.00;61774.03;5095997;28;20046;-71
2021/04/06 05:15:59;;;;;;;;;;;;;;;-139.48;100.00;61774.03;5095866;28;20420;-70
2021/04/06 05:18:43;;;;;;;11.60;2.93;;;;;;;-139.48;100.00;61774.03;5095811;28;19969;-71
2021/04/06 05:21:27;;;;;;;;;;;;;;;-139.48;100.00;61774.03;5096509;28;20469;-71
2021/04/06 05:24:11;;;;;;;2.33;1.30;;;;;;;-139.48;100.00;61774.03;5095771;28;20300;-70
2021/04/06 05:26:56;;;;;;;6.07;2.55;;;;;;;-139.48;100.00;61774.03;5095044;28;20131;-71
2021/04/06 05:29:39;;;;;;;6.03;2.03;;;;;;;-139.48;100.00;61774.03;5095357;28;20073;-70
2021/04/06 05:32:23;;;;;;;;;;;;;;;-139.48;100.00;61774.03;5094830;28;20104;-69
2021/04/06 05:35:08;;;;;;;8.77;2.85;;;;;;;-139.48;100.00;61774.03;5094806;28;19961;-70
2021/04/06 05:37:52;;;;;;;7.72;1.80;;;;;;;-139.48;100.00;61774.03;5095697;28;20078;-68
2021/04/06 05:40:35;;;;;;;3.95;1.55;;;;;;;-139.48;100.00;61774.03;5095368;28;20055;-70
2021/04/06 05:43:19;;;;;;;;;;;;;;;-139.48;100.00;61774.03;5095424;28;20047;-67
2021/04/06 05:46:04;;;;;;;10.27;2.57;;;;;;;-139.48;100.00;61774.03;5094930;28;19968;-70
2021/04/06 05:48:48;;;;;;;4.60;1.58;;;;;;;-139.48;100.00;61774.03;5095093;28;20050;-70
2021/04/06 05:51:32;;;;;;;9.57;2.85;;;;;;;-139.48;100.00;61774.03;5095032;28;20075;-70
2021/04/06 05:54:17;;;;;;;10.13;2.72;;;;;;;-139.48;100.00;61774.03;5081543;28;20097;-70
2021/04/06 05:57:01;;;;;;;2.42;1.02;;;;;;;-139.48;100.00;61774.03;5079782;28;20070;-69
2021/04/06 05:59:45;;;;;;;6.57;2.40;;;;;;;-139.48;100.00;61774.03;5094769;28;20101;-70
2021/04/06 06:02:30;;;;;;;11.48;3.15;;;;;;;-139.48;100.00;61774.03;5093656;28;20109;-70
2021/04/06 06:05:16;;;;;;;3.75;2.13;;;;;;;-139.48;100.00;61774.03;5093525;28;20036;-69
2021/04/06 06:08:07;;;;;;;9.57;2.60;;;;;;;-139.48;100.00;61774.03;5092690;28;20082;-69
2021/04/06 06:11:01;;;;;;;8.45;3.08;;;;;;;-139.48;100.00;61774.03;5093517;28;20043;-69
2021/04/06 06:13:45;;;;;;;7.47;3.05;;;;;;;-139.48;100.00;61774.03;5094077;28;20058;-69
2021/04/06 06:16:31;;;;;;;8.48;2.95;;;;;;;-139.48;100.00;61774.03;5093560;28;20101;-68
2021/04/06 06:19:15;;;;;;;6.40;1.92;;;;;;;-139.48;100.00;61774.03;5093792;28;20070;-69
2021/04/06 06:22:10;;;;;;;6.45;1.23;;;;;;;-139.48;100.00;61774.03;5094816;28;20113;-69
2021/04/06 06:25:13;;;;;;;9.50;2.85;;;;;;;-139.48;100.00;61774.03;5093774;28;20038;-70
2021/04/06 06:28:09;;;;;;;14.18;3.05;;;;;;;-139.48;100.00;61774.03;5096872;28;20047;-70
2021/04/06 06:30:53;;;;;;;10.90;2.72;;;;;;;-139.48;100.00;61774.03;5096009;28;20047;-69
2021/04/06 06:33:37;;;;;;;10.13;1.45;;;;;;;-139.48;100.00;61774.03;5096733;28;20042;-69
2021/04/06 06:36:24;;;;;;;7.15;2.92;;;;;;;-139.48;100.00;61774.03;5095539;28;20054;-69
2021/04/06 06:39:08;;;;;;;4.82;2.33;;;;;;;-139.48;100.00;61774.03;5094592;28;20097;-70
2021/04/06 06:41:57;;;;;;;5.38;2.53;;;;;;;-139.48;100.00;61774.03;5095011;28;20098;-70
2021/04/06 06:44:41;;;;;;;8.70;3.22;;;;;;;-139.48;100.00;61774.03;5092770;28;20067;-70
2021/04/06 06:47:27;;;;;;;14.65;3.03;;;;;;;-139.48;100.00;61774.03;5093689;28;20043;-70
2021/04/06 06:50:12;;;;;;;10.35;1.70;;;;;;;-139.48;100.00;61774.03;5092588;28;20051;-69
2021/04/06 06:52:57;;;;;;;9.45;2.65;;;;;;;-139.48;100.00;61774.03;5092881;28;20051;-69
2021/04/06 06:55:41;;;;;;;6.95;1.73;;;;;;;-139.48;100.00;61774.03;5092746;28;20088;-69
2021/04/06 06:58:54;;;;;;;6.13;2.15;;;;;;;-139.48;100.00;61774.03;5092654;28;20055;-69
2021/04/06 07:01:38;;;;;;;10.57;2.83;;;;;;;-139.48;100.00;61774.03;5083833;28;20042;-70
2021/04/06 07:04:28;;;;;;;5.05;2.17;;;;;;;-139.48;100.00;61774.03;5078089;28;20038;-70
2021/04/06 07:07:12;;;;;;;10.80;3.33;;;;;;;-139.48;100.00;61774.03;5092422;28;20047;-70
2021/04/06 07:09:56;;;;;;;4.80;2.22;;;;;;;-139.48;100.00;61774.03;5078042;28;20134;-70
2021/04/06 07:12:43;;;;;;;6.78;2.42;;;;;;;-139.48;100.00;61774.03;5092523;28;20101;-70
2021/04/06 07:15:28;;;;;;;8.73;3.15;;;;;;;-139.48;100.00;61774.03;5078457;28;20108;-69
2021/04/06 07:18:14;;;;;;;12.50;3.65;;;;;;;-139.48;100.00;61774.03;5077945;28;20090;-70
2021/04/06 07:21:00;;;;;;;6.72;2.70;;;;;;;-139.48;100.00;61774.03;5096449;28;20081;-69
2021/04/06 07:24:04;;;;;;;9.30;3.40;;;;;;;-139.48;100.00;61774.03;5082381;28;20051;-70
2021/04/06 07:26:48;;;;;;;8.33;2.53;;;;;;;-139.48;100.00;61774.03;5097234;28;20066;-70
2021/04/06 07:29:32;;;;;;;4.70;2.58;;;;;;;-139.48;100.00;61774.03;5096396;28;20771;-70
2021/04/06 07:32:16;;;;;;;8.93;3.67;;;;;;;-139.48;100.00;61774.03;5096390;28;20097;-69
2021/04/06 07:34:59;;;;;;;10.73;3.47;;;;;;;-139.48;100.00;61774.03;5097268;28;20473;-69
2021/04/06 07:37:44;;;;;;;7.25;3.40;;;;;;;-139.48;100.00;61774.03;5097174;28;20050;-69
2021/04/06 07:40:32;;;;;;;7.20;3.28;;;;;;;-139.48;100.00;61774.03;5096270;28;20050;-70
2021/04/06 07:43:16;;;;;;;8.63;2.67;;;;;;;-139.48;100.00;61774.03;5096169;28;20089;-69
2021/04/06 07:46:01;;;;;;;11.15;2.90;;;;;;;-139.48;100.00;61774.03;5096495;28;20507;-69
2021/04/06 07:48:50;;;;;;;6.30;2.22;;;;;;;-139.48;100.00;61774.03;5097053;28;20047;-69
2021/04/06 07:51:48;;;;;;;9.25;3.25;;;;;;;-139.48;100.00;61774.03;5095771;28;20134;-70
2021/04/06 07:54:32;;;;;;;6.88;1.83;;;;;;;-139.48;100.00;61774.03;5097002;28;20042;-70
2021/04/06 07:57:16;;;;;;;10.85;2.25;;;;;;;-139.48;100.00;61774.03;5096956;28;20161;-69
2021/04/06 08:00:00;;;;;;;7.63;2.90;;;;;;;-139.48;100.00;61774.03;5096887;28;20050;-70
2021/04/06 08:02:44;;;;;;;4.07;2.30;;;;;;;-139.48;100.00;61774.03;5096533;28;20055;-70
2021/04/06 08:05:29;;;;;;;6.13;2.78;;;;;;;-139.48;100.00;61774.03;5081340;28;20082;-69
2021/04/06 08:08:34;;;;;;;8.13;3.17;;;;;;;-139.48;100.00;61774.03;5095951;28;20066;-69
2021/04/06 08:11:19;;;;;;;9.07;2.95;;;;;;;-139.48;100.00;61774.03;5095478;28;20585;-70
2021/04/06 08:14:03;;;;;;;7.20;3.35;;;;;;;-139.48;100.00;61774.03;5095400;28;20508;-70
2021/04/06 08:16:47;;;;;;;8.63;2.65;;;;;;;-139.48;100.00;61774.03;5081377;28;20066;-69
2021/04/06 08:19:31;;;;;;;6.88;3.30;;;;;;;-139.48;100.00;61774.03;5096385;28;20051;-69
2021/04/06 08:22:28;;;;;;;4.03;1.90;;;;;;;-139.48;100.00;61774.03;5095285;28;20113;-69
2021/04/06 08:25:16;;;;;;;11.13;3.30;;;;;;;-139.48;100.00;61774.03;5095057;28;20092;-70
2021/04/06 08:28:01;;;;;;;11.43;3.80;;;;;;;-139.48;100.00;61774.03;5095726;28;20113;-70
2021/04/06 08:30:45;;;;;;;9.80;2.85;;;;;;;-139.48;100.00;61774.03;5094872;28;20105;-69
2021/04/06 08:33:29;;;;;;;8.50;2.00;;;;;;;-139.48;100.00;61774.03;5095396;28;20043;-70
2021/04/06 08:36:27;;;;;;;6.45;3.05;;;;;;;-139.48;100.00;61774.03;5096365;28;20047;-70
2021/04/06 08:39:34;;;;;;;8.95;2.45;;;;;;;-139.48;100.00;61774.03;5095343;28;20104;-70
2021/04/06 08:42:19;;;;;;;7.85;2.95;;;;;;;-139.48;100.00;61774.03;5095100;28;20043;-70
2021/04/06 08:45:03;;;;;;;8.85;2.95;;;;;;;-139.48;100.00;61774.03;5094872;28;20085;-69
2021/04/06 08:47:47;;;;;;;6.13;2.08;;;;;;;-139.48;100.00;61774.03;5080671;28;20055;-70
2021/04/06 08:50:35;;;;;;;13.60;3.38;;;;;;;-139.48;100.00;61774.03;5080642;28;20093;-70
2021/04/06 08:53:21;;;;;;;5.65;3.00;;;;;;;-139.48;100.00;61774.03;5095014;28;20094;-70
2021/04/06 08:56:18;;;;;;;5.60;2.13;;;;;;;-139.48;100.00;61774.03;5095951;28;20178;-70
2021/04/06 08:59:30;;;;;;;8.65;2.85;;;;;;;-139.48;100.00;61774.03;5080446;28;20047;-70
2021/04/06 09:02:18;;;;;;;5.40;2.88;;;;;;;-139.48;100.00;61774.03;5081388;28;20050;-70
2021/04/06 09:05:03;;;;;;;3.55;1.85;;;;;;;-139.48;100.00;61774.03;5080479;28;20043;-70
2021/04/06 09:07:47;;;;;;;7.22;3.78;;;;;;;-139.48;100.00;61774.03;5094403;28;20058;-71
2021/04/06 09:10:38;;;;;;;12.93;2.40;;;;;;;-139.48;100.00;61774.03;5094687;28;20181;-70
2021/04/06 09:13:22;;;;;;;6.85;2.13;;;;;;;-139.48;100.00;61774.03;5107389;22;20051;-68
2021/04/06 09:16:06;;;;;;;9.90;2.55;;;;;;;-139.48;100.00;61774.03;5054095;28;20417;-69
2021/04/06 09:18:55;;;;;;;12.60;2.70;;;;;;;-139.48;100.00;61774.03;5054324;28;20055;-69
2021/04/06 09:21:45;;;;;;;9.52;2.70;;;;;;;-139.48;100.00;61774.03;5053856;28;20413;-69
2021/04/06 09:24:29;;;;;;;5.22;2.22;;;;;;;-139.48;100.00;61774.03;5067552;28;20052;-68
2021/04/06 09:27:13;;;;;;;10.52;3.10;;;;;;;-139.48;100.00;61774.03;5073984;28;20067;-69
2021/04/06 09:29:57;;;;;;;11.07;3.22;;;;;;;-139.48;100.00;61774.03;5074911;28;20047;-68
2021/04/06 09:32:41;;;;;;;7.28;3.25;;;;;;;-139.48;100.00;61774.03;5074767;28;20066;-69
2021/04/06 09:35:25;;;;;;;8.35;2.50;;;;;;;-139.48;100.00;61774.03;5059970;28;20048;-69
2021/04/06 09:38:08;;;;;;;9.27;3.40;;;;;;;-139.48;100.00;61774.03;5073567;28;20047;-68
2021/04/06 09:40:53;;;;;;;4.28;2.35;;;;;;;-139.48;100.00;61774.03;5059872;28;20047;-68
2021/04/06 09:43:37;;;;;;;12.95;3.08;;;;;;;-139.48;100.00;61774.03;5073209;28;20051;-68
2021/04/06 09:46:32;;;;;;;4.22;2.15;;;;;;;-139.48;100.00;61774.03;5073842;28;20075;-69
2021/04/06 09:49:16;;;;;;;5.57;3.13;;;;;;;-139.48;100.00;61774.03;5073270;28;20150;-68
2021/04/06 09:52:03;;;;;;;9.07;3.85;;;;;;;-139.48;100.00;61774.03;5073490;28;20050;-68
2021/04/06 09:54:52;;;;;;;10.82;3.38;;;;;;;-139.48;100.00;61774.03;5074068;28;20047;-69
2021/04/06 09:57:44;;;;;;;9.68;2.65;;;;;;;-139.48;100.00;61774.03;5073418;28;20132;-68
2021/04/06 10:00:31;;;;;;;9.35;3.08;;;;;;;-139.48;100.00;61774.03;5074095;28;20096;-68
2021/04/06 10:03:26;;;;;;;15.40;3.15;;;;;;;-139.48;100.00;61774.03;5073699;28;20123;-68
2021/04/06 10:06:10;;;;;;;5.32;2.67;;;;;;;-139.48;100.00;61774.03;5073143;28;20567;-69
2021/04/06 10:08:54;;;;;;;6.50;3.55;;;;;;;-139.48;100.00;61774.03;5073425;28;20051;-69
2021/04/06 10:11:38;;;;;;;10.07;2.97;;;;;;;-139.48;100.00;61774.03;5072888;28;20043;-69
2021/04/06 10:14:22;;;;;;;5.75;2.70;;;;;;;-139.48;100.00;61774.03;5073586;28;20044;-69
2021/04/06 10:17:09;;;;;;;12.05;3.05;;;;;;;-139.48;100.00;61774.03;5072824;28;20409;-69
2021/04/06 10:19:56;;;;;;;7.82;2.65;;;;;;;-139.48;100.00;61774.03;5072916;28;20127;-69
2021/04/06 10:22:47;;;;;;;6.20;2.78;;;;;;;-139.48;100.00;61774.03;5073898;28;20075;-68
2021/04/06 10:25:38;;;;;;;4.75;1.77;;;;;;;-139.48;100.00;61774.03;5073650;28;20039;-69
2021/04/06 10:28:27;;;;;;;5.22;2.25;;;;;;;-139.48;100.00;61774.03;5072812;28;20054;-69
2021/04/06 10:31:11;;;;;;;5.93;2.30;;;;;;;-139.48;100.00;61774.03;5072888;28;20121;-69
2021/04/06 10:34:04;;;;;;;6.57;2.50;;;;;;;-139.48;100.00;61774.03;5073813;28;20460;-68
2021/04/06 10:36:57;;;;;;;9.93;3.20;;;;;;;-139.48;100.00;61774.03;5058391;28;20405;-68
2021/04/06 10:39:43;;;;;;;3.78;2.10;;;;;;;-139.48;100.00;61774.03;5073652;28;20051;-69
2021/04/06 10:42:27;;;;;;;8.50;2.65;;;;;;;-139.48;100.00;61774.03;5072310;28;20554;-69
2021/04/06 10:45:12;;;;;;;3.47;2.30;;;;;;;-139.48;100.00;61774.03;5072178;28;20047;-68
2021/04/06 10:48:05;;;;;;;6.93;2.45;;;;;;;-139.48;100.00;61774.03;5086574;28;20504;-68
2021/04/06 10:50:51;;;;;;;8.77;2.67;;;;;;;-139.48;100.00;61774.03;5073469;28;20051;-68
2021/04/06 10:53:50;;;;;;;7.78;2.78;;;;;;;-139.48;100.00;61774.03;5073567;28;20046;-69
2021/04/06 10:56:46;;;;;;;5.03;1.90;;;;;;;-139.48;100.00;61774.03;5072469;28;20047;-68
2021/04/06 10:59:38;;;;;;;11.27;2.88;;;;;;;-139.48;100.00;61774.03;5072442;28;20538;-68
2021/04/06 11:02:24;;;;;;;7.85;2.30;;;;;;;-139.48;100.00;61774.03;5072579;28;20580;-67
2021/04/06 11:05:09;;;;;;;9.02;2.50;;;;;;;-139.48;100.00;61774.03;5071851;28;20545;-67
2021/04/06 11:07:53;;;;;;;6.47;1.92;;;;;;;-139.48;100.00;61774.03;5072431;28;20089;-67
2021/04/06 11:10:37;;;;;;;6.35;2.33;;;;;;;-139.48;100.00;61774.03;5073121;28;20039;-68
2021/04/06 11:13:22;;;;;;;6.25;2.58;;;;;;;-139.48;100.00;61774.03;5072143;28;20039;-68
2021/04/06 11:16:06;;;;;;;7.72;3.05;;;;;;;-139.48;100.00;61774.03;5072266;28;20050;-68
2021/04/06 11:18:58;;;;;;;7.45;2.92;;;;;;;-139.48;100.00;61774.03;5072248;28;20145;-68
2021/04/06 11:21:51;;;;;;;3.80;1.75;;;;;;;-139.48;100.00;61774.03;5071908;28;20071;-68
2021/04/06 11:24:35;;;;;;;3.70;2.08;;;;;;;-139.48;100.00;61774.03;5071888;28;20098;-68
2021/04/06 11:27:19;;;;;;;2.55;1.85;;;;;;;-139.48;100.00;61774.03;5058089;28;20047;-68
2021/04/06 11:30:04;;;;;;;5.13;1.83;;;;;;;-139.48;100.00;61774.03;5072104;28;20106;-68
2021/04/06 11:32:48;;;;;;;3.60;1.50;;;;;;;-139.48;100.00;61774.03;5057906;28;20071;-68
2021/04/06 11:35:32;;;;;;;3.60;2.10;;;;;;;-139.48;100.00;61774.03;5072110;28;20051;-67
2021/04/06 11:38:17;;;;;;;9.35;2.50;;;;;;;-139.48;100.00;61774.03;5072328;28;20543;-68
2021/04/06 11:41:01;;;;;;;9.55;2.63;;;;;;;-139.48;100.00;61774.03;5072971;28;20511;-68
2021/04/06 11:43:46;;;;;;;4.80;2.45;;;;;;;-139.48;100.00;61774.03;5071906;28;20044;-68
2021/04/06 11:46:32;;;;;;;4.68;1.67;;;;;;;-139.48;100.00;61774.03;5072022;28;20051;-68
2021/04/06 11:49:17;;;;;;;6.63;2.42;;;;;;;-139.48;100.00;61774.03;5073248;28;20055;-68
2021/04/06 11:52:01;;;;;;;6.57;2.08;;;;;;;-139.48;100.00;61774.03;5057709;28;20051;-68
2021/04/06 11:54:45;;;;;;;3.38;2.10;;;;;;;-139.48;100.00;61774.03;5057682;28;20044;-68
2021/04/06 11:57:29;;;;;;;1.77;1.02;;;;;;;-139.48;100.00;61774.03;5071571;28;20074;-68
2021/04/06 12:00:14;;;;;;;6.78;2.90;;;;;;;-139.48;100.00;61774.03;5057914;28;20101;-68
2021/04/06 12:02:58;;;;;;;5.45;2.80;;;;;;;-139.48;100.00;61774.03;5057516;28;20132;-68
2021/04/06 12:05:43;;;;;;;7.88;2.53;;;;;;;-139.48;100.00;61774.03;5071833;28;20128;-68
2021/04/06 12:08:27;;;;;;;5.75;2.58;;;;;;;-139.48;100.00;61774.03;5075172;28;20071;-69
2021/04/06 12:11:11;;;;;;;4.80;1.63;;;;;;;-139.48;100.00;61774.03;5061125;28;20044;-68
2021/04/06 12:13:55;;;;;;;4.18;1.83;;;;;;;-139.48;100.00;61774.03;5075056;28;20094;-69
2021/04/06 12:16:39;;;;;;;2.72;1.65;;;;;;;-139.48;100.00;61774.03;5075377;28;20085;-68
2021/04/06 12:19:23;;;;;;;6.95;2.90;;;;;;;-139.48;100.00;61774.03;5075329;28;20051;-69
2021/04/06 12:22:07;;;;;;;7.15;2.72;;;;;;;-139.48;100.00;61774.03;5075376;28;20417;-68
2021/04/06 12:24:51;;;;;;;4.78;2.60;;;;;;;-139.48;100.00;61774.03;5060693;28;20567;-68
2021/04/06 12:27:35;;;;;;;7.80;3.25;;;;;;;-139.48;100.00;61774.03;5074919;28;20044;-68
2021/04/06 12:30:20;;;;;;;6.82;2.97;;;;;;;-139.48;100.00;61774.03;5076171;28;20055;-68
2021/04/06 12:33:04;;;;;;;3.95;2.47;;;;;;;-139.48;100.00;61774.03;5075060;28;20059;-68
2021/04/06 12:35:49;;;;;;;5.13;2.90;;;;;;;-139.48;100.00;61774.03;5074873;28;20051;-68
2021/04/06 12:38:32;;;;;;;4.55;2.95;;;;;;;-139.48;100.00;61774.03;5075995;28;20090;-68